Topsail Beach, North Carolina
Current Conditions -  °F | °C
As of 6:56 AM on Thursday 23 Oct 2014 (Local Time) from KNCA Reporting Station
Clear Clear  
Wind Chill:   Ceiling: Unl
Heat Index:   Visibility: 10mi
Dew Point:   Wind: 6mph
Humidity: 86%   Direction: 300°WNW
Pressure: 29.99"   Gusts: NA
Location:  34.4895°N, 77.514°W
Report Text: KNCA 231056Z 30005KT 10SM CLR 08/06 A2999 RMK AO2 SLP158 T00780056
Loading
Personal Weather Stations






























Interactive Weather Map
Tropical Storm Tracking
New forecast layout! Learn more

10-Day Weather Forecast

Advertisements
Track Severe Weather on mobile